Chaska, MN (55318)

1:28 PM CDT on July 30, 2016 (GMT -0500)
Hazeltine Woods | | Change Station

Elev 938 ft 44.82 °N, 93.57 °W | Updated 10 seconds ago

Mostly Cloudy
Mostly Cloudy
75.9 °F
Feels Like 78 °F
N
2.0
Wind Variable Wind from ESE
Gusts 5.0 mph

Today
High -- | Low -- °F
--% Chance of Precip.
Yesterday
High -- | Low -- °F
Precip. -- in
Pressure 30.01 in
Visibility 10.0 miles
Clouds Scattered Clouds 3200 ft
Scattered Clouds 3900 ft
Mostly Cloudy 8500 ft
Heat Index 78 °F
Dew Point 65 °F
Humidity 68%
Rainfall 0.00 in
Snow Depth Not available.
5:58 AM 8:42 PM
Waning Crescent, 12% visible
METAR KFCM 301753Z 15006KT 10SM SCT032 SCT039 BKN085 26/17 A3002 RMK AO2 SLP162 T02610172 10267 20183 58002
Pressure 30.01 in
Visibility 10.0 miles
Clouds Scattered Clouds 3200 ft
Scattered Clouds 3900 ft
Mostly Cloudy 8500 ft
Heat Index 78 °F
Dew Point 65 °F
Humidity 68%
Rainfall 0.00 in
Snow Depth Not available.
5:58 AM 8:42 PM
Waning Crescent, 12% visible
METAR KFCM 301753Z 15006KT 10SM SCT032 SCT039 BKN085 26/17 A3002 RMK AO2 SLP162 T02610172 10267 20183 58002

10-Day Weather Forecast

Almanac

Astronomy

Jul. 30, 2016 Rise Set
Actual Time
Civil Twilight
Nautical Twilight
Astronomical Twilight
Moon
Length of Visible Light
Length of Day
Tomorrow will be .
, % of the Moon is Illuminated

Today's Extremes

State Highs State Lows

Community

WunderPhotos

Upload Photos

1,928,608 photos uploaded!

WunderBlog® & News

Nearby

Air Quality

  Air Quality AQ Index Pollutant
Not available.

Snow Depth

Station Depth Elevation

Earthquake Activity

City Distance Mag. Time & Date
Minimum magnitude displayed is 2.5.

Coastal Water Temperatures

Place Temperature

Stations

Nearby Weather Stations

Station Location Temp. Windchill Dew Point Humidity Wind Precip. Elev Updated Type
                   

Watches & Warnings

There are currently no watches in effect.